Latest Weather Observations for Launceston Airport

IDT60801

Issued at 10:05 am EST Saturday 19 April 2014 (issued every 30 minutes, with the page automatically refreshed every 10 minutes)

About weather observations | Map of weather stations | Latest weather observations for TAS | Other Formats
Station Details ID: 091311 Name: LAUNCESTON AIRPORT Lat: -41.55 Lon: 147.21 Height: 166.9 m
Data from the previous 72 hours. | See also: Recent months at Launceston Airport
Date/Time
EST
Temp
°C
App
Temp
°C
Dew
Point
Rel
Hum
%
Delta-T
°C
Wind Press
QNH
hPa
Press
MSL
hPa
Rain
since 9 am
mm
Dir
 
Spd
km/h
Gust
km/h
Spd
kts
Gust
kts
19/10:00am 11.6 9.7 2.6 54 3.9 ENE 2 9 1 5 1016.3 - 0.0
19/09:30am 11.3 8.8 3.6 59 3.4 NE 6 9 3 5 1016.5 - 0.0
19/09:00am 9.6 6.7 4.4 70 2.3 NE 9 13 5 7 1016.3 1016.4 6.0
19/08:30am 8.7 6.0 3.9 72 2.1 NW 7 9 4 5 1016.4 - 6.0
19/08:00am 6.8 5.3 3.1 77 1.6 CALM 0 4 0 2 1016.3 - 6.0
19/07:30am 4.3 2.8 2.8 90 0.6 CALM 0 0 0 0 1016.1 - 6.0
19/07:00am 2.4 -0.8 0.8 89 0.6 ENE 7 11 4 6 1015.8 - 6.0
19/06:30am 4.5 2.5 2.4 86 0.9 NW 2 7 1 4 1015.4 - 6.0
19/06:00am 3.7 0.7 1.7 87 0.8 N 7 9 4 5 1015.3 1015.4 6.0
19/05:30am 4.3 0.9 1.7 83 1.0 WNW 9 13 5 7 1015.2 - 6.0
19/05:00am 3.6 0.4 1.0 83 1.0 NNW 7 9 4 5 1015.1 - 6.0
19/04:30am 4.3 0.9 1.8 84 1.0 NW 9 11 5 6 1014.9 - 6.0
19/04:00am 5.0 2.1 1.7 79 1.3 NNW 6 11 3 6 1014.8 - 6.0
19/03:30am 3.8 0.6 -0.8 72 1.7 WNW 6 7 3 4 1014.5 - 6.0
19/03:00am 5.8 4.1 1.7 75 1.7 CALM 0 0 0 0 1014.5 1014.6 6.0
19/02:30am 5.9 3.8 1.8 75 1.7 WSW 2 6 1 3 1014.6 - 6.0
19/02:00am 6.0 2.9 1.5 73 1.8 N 7 11 4 6 1014.6 - 6.0
19/01:30am 7.2 4.4 2.3 71 2.0 SSE 6 11 3 6 1014.6 - 6.0
19/01:00am 7.1 4.6 1.6 68 2.3 WSW 4 11 2 6 1014.7 - 6.0
19/12:30am 7.0 4.0 1.9 70 2.1 WSW 7 9 4 5 1014.5 - 6.0
19/12:00am 6.5 3.9 0.8 67 2.3 N 4 9 2 5 1014.5 1014.6 6.0
 
Date/Time
EST
Temp
°C
App
Temp
°C
Dew
Point
Rel
Hum
%
Delta-T
°C
Wind Press
QNH
hPa
Press
MSL
hPa
Rain
since 9 am
mm
Dir
 
Spd
km/h
Gust
km/h
Spd
kts
Gust
kts
18/11:30pm 7.1 3.6 1.2 66 2.4 WNW 9 11 5 6 1014.6 - 6.0
18/11:00pm 8.7 5.4 2.3 64 2.7 ENE 9 15 5 8 1014.5 - 6.0
18/10:30pm 10.7 6.4 1.0 51 4.1 SW 13 17 7 9 1014.2 - 6.0
18/10:00pm 10.3 4.4 1.7 55 3.6 SW 22 28 12 15 1014.1 - 6.0
18/09:30pm 10.4 4.5 1.8 55 3.7 WSW 22 35 12 19 1013.7 - 6.0
18/09:00pm 8.0 5.2 1.8 65 2.6 W 6 11 3 6 1013.5 1013.6 6.0
18/08:30pm 8.1 5.1 2.1 66 2.5 N 7 11 4 6 1013.2 - 6.0
18/08:00pm 10.4 6.7 2.3 57 3.5 WSW 11 15 6 8 1012.9 - 6.0
18/07:30pm 10.7 5.8 2.0 55 3.7 SW 17 20 9 11 1012.6 - 6.0
18/07:00pm 10.6 6.4 1.9 55 3.7 SW 13 20 7 11 1012.5 - 6.0
18/06:30pm 10.4 8.0 2.0 56 3.6 S 4 13 2 7 1012.4 - 6.0
18/06:00pm 11.5 8.5 1.7 51 4.2 S 7 9 4 5 1011.7 1011.8 6.0
18/05:30pm 12.0 7.4 1.3 48 4.6 S 15 20 8 11 1011.2 - 6.0
18/05:00pm 13.8 9.9 1.1 42 5.5 SSW 11 24 6 13 1010.7 - 6.0
18/04:30pm 14.8 9.8 1.3 40 5.9 WSW 17 24 9 13 1010.2 - 6.0
18/04:00pm 15.2 9.3 1.4 39 6.1 WSW 22 33 12 18 1009.5 - 6.0
18/03:30pm 15.7 10.4 2.8 42 5.9 WSW 20 32 11 17 1009.1 - 6.0
18/03:00pm 15.6 10.0 3.7 45 5.5 WSW 22 30 12 16 1008.7 1008.8 6.0
18/02:30pm 15.3 9.6 3.1 44 5.6 SW 22 35 12 19 1008.5 - 6.0
18/02:00pm 14.8 10.3 6.9 59 3.9 SSW 20 26 11 14 1008.3 - 6.0
18/01:30pm 13.4 11.2 9.3 76 2.1 S 11 15 6 8 1008.4 - 6.0
18/01:00pm 12.4 9.4 7.9 74 2.2 S 13 17 7 9 1008.5 - 6.0
18/12:30pm 11.9 10.2 8.2 78 1.8 SE 7 11 4 6 1008.3 - 6.0
18/12:00pm 11.7 8.4 8.0 78 1.8 ESE 15 20 8 11 1008.6 1008.7 6.0
18/11:30am 12.8 9.5 7.9 72 2.4 WSW 15 24 8 13 1009.6 - 5.4
18/11:05am 13.3 8.7 11.2 87 1.1 WSW 26 35 14 19 1009.1 - 5.4
18/11:00am 13.2 7.9 11.1 87 1.1 WSW 30 39 16 21 1009.1 - 5.2
18/10:37am 14.1 11.1 12.5 90 0.9 NNW 20 28 11 15 1009.2 - 1.4
18/10:30am 14.7 11.8 12.4 86 1.3 NW 19 24 10 13 1008.9 - 0.0
18/10:00am 15.2 12.1 12.1 82 1.7 N 20 28 11 15 1008.7 - 0.0
18/09:30am 14.6 10.6 11.7 83 1.6 NW 24 30 13 16 1008.9 - 0.0
18/09:00am 14.7 11.4 11.5 81 1.7 NNW 20 28 11 15 1009.2 1009.3 0.0
18/08:30am 14.9 12.6 11.7 81 1.7 N 15 20 8 11 1009.7 - 0.0
18/08:00am 14.1 12.4 11.3 83 1.5 N 11 15 6 8 1010.2 - 0.0
18/07:30am 13.4 10.6 11.3 87 1.1 NNW 17 20 9 11 1010.6 - 0.0
18/07:00am 13.0 10.7 11.6 91 0.8 NNW 15 19 8 10 1010.9 - 0.0
18/06:30am 13.0 10.1 11.1 88 1.0 NNW 17 20 9 11 1010.9 - 0.0
18/06:00am 13.4 10.1 11.5 88 1.0 N 20 26 11 14 1011.1 1011.2 0.0
18/05:30am 12.9 10.5 11.5 91 0.7 NNW 15 17 8 9 1011.6 - 0.0
18/05:00am 12.6 10.2 11.5 93 0.6 NNW 15 17 8 9 1012.0 - 0.0
18/04:30am 12.8 10.0 11.4 91 0.7 NNW 17 20 9 11 1012.5 - 0.0
18/04:00am 12.9 9.8 11.5 91 0.7 NNW 19 22 10 12 1012.7 - 0.0
18/03:30am 12.2 10.2 11.4 95 0.4 N 13 19 7 10 1013.1 - 0.0
18/03:02am 12.4 9.8 10.8 90 0.8 N 15 19 8 10 1013.6 - 0.0
18/03:00am 12.5 10.0 10.9 90 0.8 N 15 19 8 10 1013.6 1013.7 0.0
18/02:30am 13.1 10.4 11.7 91 0.8 NW 17 22 9 12 1014.3 - 0.0
18/02:26am 13.0 10.7 11.7 92 0.7 NW 15 19 8 10 1014.3 - 0.0
18/02:03am 12.2 10.4 10.8 91 0.7 NNW 11 15 6 8 1014.5 - 0.0
18/02:00am 12.3 10.9 10.9 91 0.7 NNW 9 15 5 8 1014.5 - 0.0
18/01:49am 12.6 11.0 11.5 93 0.6 NW 11 13 6 7 1014.6 - 0.0
18/01:47am 12.6 11.0 11.5 93 0.6 NW 11 13 6 7 1014.6 - 0.0
18/01:30am 11.6 10.1 10.5 93 0.6 NNW 9 11 5 6 1014.8 - 0.0
18/01:28am 11.6 10.1 10.5 93 0.6 N 9 13 5 7 1014.8 - 0.0
18/01:00am 11.7 10.1 10.1 90 0.8 N 9 11 5 6 1015.2 - 0.0
18/12:30am 13.4 10.7 11.6 89 1.0 NW 17 22 9 12 1015.8 - 0.0
18/12:00am 12.0 10.2 10.9 93 0.6 NNW 11 13 6 7 1016.1 1016.2 0.0
 
Date/Time
EST
Temp
°C
App
Temp
°C
Dew
Point
Rel
Hum
%
Delta-T
°C
Wind Press
QNH
hPa
Press
MSL
hPa
Rain
since 9 am
mm
Dir
 
Spd
km/h
Gust
km/h
Spd
kts
Gust
kts
17/11:30pm 12.0 10.2 10.9 93 0.6 NNW 11 13 6 7 1016.4 - 0.0
17/11:00pm 11.7 10.6 10.8 94 0.5 N 7 9 4 5 1016.9 - 0.0
17/10:30pm 11.2 10.0 10.4 95 0.4 N 7 7 4 4 1017.4 - 0.0
17/10:00pm 10.1 7.8 9.0 93 0.5 NNW 11 13 6 7 1018.0 - 0.0
17/09:30pm 10.9 9.2 10.0 94 0.5 NNW 9 11 5 6 1018.1 - 0.0
17/09:00pm 9.8 7.1 8.9 94 0.4 N 13 15 7 8 1018.2 1018.4 0.0
17/08:30pm 9.7 7.6 8.3 91 0.7 N 9 9 5 5 1018.3 - 0.0
17/08:00pm 9.8 7.2 7.7 87 1.0 N 11 13 6 7 1018.3 - 0.0
17/07:30pm 11.5 8.1 9.1 85 1.2 N 17 19 9 10 1018.2 - 0.0
17/07:00pm 12.9 9.4 10.1 83 1.5 N 19 22 10 12 1018.5 - 0.0
17/06:30pm 12.6 9.2 9.2 80 1.7 NNW 17 19 9 10 1018.5 - 0.0
17/06:00pm 13.9 10.8 8.7 71 2.6 N 15 20 8 11 1018.2 1018.4 0.0
17/05:30pm 15.5 12.2 9.6 68 3.1 N 17 20 9 11 1018.2 - 0.0
17/05:00pm 15.5 12.2 9.6 68 3.1 NNW 17 20 9 11 1018.2 - 0.0
17/04:30pm 15.7 11.8 8.7 63 3.6 NNW 19 24 10 13 1018.3 - 0.0
17/04:00pm 17.2 13.1 8.6 57 4.5 N 20 28 11 15 1018.6 - 0.0
17/03:30pm 17.2 13.5 9.6 61 4.0 N 19 26 10 14 1019.0 - 0.0
17/03:00pm 16.9 13.2 9.6 62 3.8 N 19 26 10 14 1019.5 1019.6 0.0
17/02:30pm 17.2 13.6 9.9 62 3.9 NNW 19 26 10 14 1019.7 - 0.0
17/02:00pm 16.6 13.1 10.2 66 3.4 NNW 19 26 10 14 1019.8 - 0.0
17/01:30pm 16.2 11.8 10.3 68 3.1 NNW 24 30 13 16 1019.9 - 0.0
17/01:00pm 17.6 14.2 10.5 63 3.8 NNW 19 24 10 13 1020.2 - 0.0
17/12:30pm 17.9 15.4 11.2 65 3.7 NNW 15 20 8 11 1020.5 - 0.0
17/12:00pm 17.1 13.9 10.0 63 3.8 NW 17 22 9 12 1020.9 1021.0 0.0
17/11:30am 17.5 14.5 10.6 64 3.7 NW 17 22 9 12 1021.1 - 0.0
17/11:00am 16.9 14.3 9.3 61 4.0 NNW 13 20 7 11 1021.1 - 0.0
17/10:30am 16.8 14.3 9.7 63 3.7 NW 13 17 7 9 1021.3 - 0.0
17/10:00am 17.0 15.2 9.4 61 4.0 N 9 17 5 9 1021.4 - 0.0
17/09:30am 15.5 14.2 9.2 66 3.3 NE 6 9 3 5 1021.5 - 0.0
17/09:00am 14.8 14.0 9.8 72 2.6 NE 4 9 2 5 1021.8 1021.9 0.0
17/08:30am 13.6 12.7 10.6 82 1.6 SE 6 7 3 4 1021.8 - 0.0
17/08:00am 12.0 10.7 10.1 88 1.0 SE 7 11 4 6 1021.8 - 0.0
17/07:30am 10.6 9.8 9.8 95 0.4 SSW 4 7 2 4 1021.5 - 0.0
17/07:00am 9.2 7.1 8.1 93 0.5 SSW 9 11 5 6 1021.3 - 0.0
17/06:30am 10.0 8.4 8.8 92 0.6 SW 7 9 4 5 1021.0 - 0.0
17/06:00am 11.0 10.9 9.6 91 0.7 CALM 0 0 0 0 1020.7 1020.8 0.0
17/05:30am 10.9 9.6 9.8 93 0.6 SSE 7 9 4 5 1020.6 - 0.0
17/05:00am 11.0 11.0 9.9 93 0.6 CALM 0 0 0 0 1020.8 - 0.0
17/04:30am 10.9 10.9 9.7 92 0.6 CALM 0 0 0 0 1020.6 - 0.0
17/04:00am 11.2 11.2 9.9 92 0.7 CALM 0 0 0 0 1020.7 - 0.0
17/03:30am 10.7 10.6 9.5 92 0.6 CALM 0 0 0 0 1020.8 - 0.0
17/03:00am 10.8 10.6 9.2 90 0.8 CALM 0 6 0 3 1020.6 1020.7 0.0
17/02:30am 11.5 11.5 9.8 89 0.9 CALM 0 0 0 0 1020.5 - 0.0
17/02:00am 11.9 11.9 9.8 87 1.1 CALM 0 0 0 0 1020.7 - 0.0
17/01:30am 12.0 10.8 9.7 86 1.2 ENE 6 7 3 4 1021.0 - 0.0
17/01:00am 11.8 11.8 9.9 88 1.0 CALM 0 0 0 0 1021.1 - 0.0
17/12:30am 11.7 11.7 9.9 89 0.9 CALM 0 0 0 0 1021.2 - 0.0
17/12:00am 11.4 11.3 9.5 88 1.0 CALM 0 0 0 0 1021.2 1021.3 0.0
 
Date/Time
EST
Temp
°C
App
Temp
°C
Dew
Point
Rel
Hum
%
Delta-T
°C
Wind Press
QNH
hPa
Press
MSL
hPa
Rain
since 9 am
mm
Dir
 
Spd
km/h
Gust
km/h
Spd
kts
Gust
kts
16/11:30pm 11.6 10.9 9.9 89 0.9 W 4 7 2 4 1021.4 - 0.0
16/11:00pm 11.7 10.6 9.9 89 0.9 N 6 7 3 4 1021.4 - 0.0
16/10:30pm 12.0 10.8 10.2 89 0.9 N 7 9 4 5 1021.3 - 0.0
16/10:00pm 11.9 10.2 9.8 87 1.1 N 9 11 5 6 1021.2 - 0.0
16/09:30pm 12.1 12.1 9.8 86 1.2 CALM 0 7 0 4 1021.4 - 0.0
16/09:00pm 12.9 11.7 10.4 85 1.3 NNE 7 11 4 6 1021.4 1021.5 0.0
16/08:30pm 13.1 11.6 10.6 85 1.3 NE 9 13 5 7 1021.3 - 0.0
16/08:00pm 13.2 11.0 10.9 86 1.2 NNE 13 17 7 9 1021.2 - 0.0
16/07:30pm 13.1 11.7 10.8 86 1.2 NNE 9 11 5 6 1021.1 - 0.0
16/07:00pm 13.2 11.7 10.4 83 1.5 N 9 11 5 6 1021.1 - 0.0
16/06:30pm 12.7 11.2 9.2 79 1.8 N 7 9 4 5 1020.9 - 0.0
16/06:00pm 13.3 11.4 9.0 75 2.2 NNE 9 13 5 7 1020.7 1020.8 0.0
16/05:30pm 14.7 13.5 9.5 71 2.7 N 6 9 3 5 1020.7 - 0.0
16/05:00pm 15.5 13.6 9.2 66 3.3 NW 9 11 5 6 1020.5 - 0.0
16/04:30pm 15.9 14.1 9.3 65 3.4 WNW 9 13 5 7 1020.5 - 0.0
16/04:00pm 16.3 14.1 9.3 63 3.7 NNW 11 15 6 8 1020.5 - 0.0
16/03:30pm 16.4 13.6 8.6 60 4.0 NNW 13 17 7 9 1020.6 - 0.0
16/03:00pm 17.2 14.5 9.1 59 4.2 N 13 17 7 9 1020.8 1020.9 0.0
16/02:30pm 16.9 14.8 8.3 57 4.4 N 9 15 5 8 1020.8 - 0.0
16/02:00pm 17.3 14.4 8.2 55 4.7 NNW 13 19 7 10 1020.9 - 0.0
16/01:30pm 17.6 16.1 8.5 55 4.7 N 6 15 3 8 1021.0 - 0.0
16/01:00pm 17.2 15.5 7.5 53 4.9 NW 6 13 3 7 1021.1 - 0.0
16/12:30pm 16.2 15.2 7.2 55 4.5 S 2 9 1 5 1021.6 - 0.0
16/12:00pm 15.5 13.4 6.5 55 4.4 WSW 7 13 4 7 1022.1 1022.2 0.0
16/11:30am 15.4 13.5 7.4 59 4.0 SSW 7 9 4 5 1022.4 - 0.0
16/11:00am 14.9 13.5 8.8 67 3.1 ESE 6 9 3 5 1022.6 - 0.0
16/10:30am 13.7 11.6 8.3 70 2.7 SSE 9 11 5 6 1022.9 - 0.0

Other Formats:

Comma delimited format used in spreadsheet applications
http://www.bom.gov.au/fwo/IDT60801/IDT60801.95966.axf

JavaScript Object Notation format (JSON) in row-major order
http://www.bom.gov.au/fwo/IDT60801/IDT60801.95966.json